Time;durP1;ratioP1;P1;durP2;ratioP2;P2;SDS_P1;SDS_P2;PMS_P1;PMS_P2;Temp;Humidity;BMP_temperature;BMP_pressure;BME280_temperature;BME280_humidity;BME280_pressure;Samples;Min_cycle;Max_cycle;Signal;HPM_P1;HPM_P2
2022/11/08 00:03:47;;;;;;;4.40;1.95;;;12.00;99.90;;;;;;4951234;29;20031;-76
2022/11/08 00:14:26;;;;;;;3.78;2.17;;;11.80;99.90;;;;;;4936203;29;20072;-76
2022/11/08 00:16:52;;;;;;;4.55;1.33;;;11.70;99.90;;;;;;4917817;29;20382;-76
2022/11/08 00:19:18;;;;;;;6.05;2.80;;;11.60;99.90;;;;;;4950808;29;20133;-76
2022/11/08 00:21:43;;;;;;;7.13;1.67;;;11.70;99.90;;;;;;4933769;29;20095;-76
2022/11/08 00:24:09;;;;;;;1.98;1.88;;;11.70;99.90;;;;;;4933522;29;20050;-75
2022/11/08 00:26:35;;;;;;;2.10;1.88;;;11.70;99.90;;;;;;4950716;29;20032;-76
2022/11/08 00:29:01;;;;;;;6.78;2.28;;;11.70;99.90;;;;;;4932972;29;20039;-76
2022/11/08 00:31:26;;;;;;;4.35;1.48;;;11.70;99.90;;;;;;4950643;29;20080;-75
2022/11/08 00:33:52;;;;;;;5.13;3.45;;;11.70;99.90;;;;;;4933367;29;20036;-75
2022/11/08 00:36:18;;;;;;;6.70;2.55;;;11.70;99.90;;;;;;4933110;29;20032;-76
2022/11/08 00:38:43;;;;;;;4.57;3.67;;;11.70;99.90;;;;;;4950304;29;20052;-75
2022/11/08 00:41:10;;;;;;;6.07;3.70;;;11.70;99.90;;;;;;4933514;29;20046;-76
2022/11/08 00:43:36;;;;;;;3.53;1.90;;;11.70;99.90;;;;;;4950019;29;20024;-75
2022/11/08 00:46:02;;;;;;;7.60;1.58;;;11.70;99.90;;;;;;4933129;29;20026;-76
2022/11/08 00:48:27;;;;;;;1.77;1.60;;;11.60;99.90;;;;;;4933041;29;20050;-76
2022/11/08 00:50:53;;;;;;;4.88;1.65;;;11.60;99.90;;;;;;4932857;29;20051;-76
2022/11/08 00:53:19;;;;;;;2.17;1.10;;;11.60;99.90;;;;;;4933235;29;20577;-76
2022/11/08 00:55:45;;;;;;;6.82;2.47;;;11.60;99.90;;;;;;4932942;29;20051;-76
2022/11/08 00:58:11;;;;;;;8.68;2.28;;;11.60;99.90;;;;;;4916998;29;20031;-76
2022/11/08 01:00:37;;;;;;;2.75;1.20;;;11.60;99.90;;;;;;4949757;29;20064;-76
2022/11/08 01:03:17;;;;;;;2.35;1.85;;;11.60;99.90;;;;;;4932889;29;20095;-75
2022/11/08 01:05:43;;;;;;;13.57;1.85;;;11.60;99.90;;;;;;4949940;29;20115;-75
2022/11/08 01:08:10;;;;;;;5.13;1.70;;;11.60;99.90;;;;;;4949813;29;20047;-76
2022/11/08 01:10:36;;;;;;;5.95;3.05;;;11.60;99.90;;;;;;4932825;29;20027;-76
2022/11/08 01:13:02;;;;;;;2.53;1.17;;;11.60;99.90;;;;;;4932601;29;20031;-76
2022/11/08 01:15:33;;;;;;;6.32;2.67;;;11.60;99.90;;;;;;4932437;29;20110;-76
2022/11/08 01:17:58;;;;;;;9.88;6.43;;;11.60;99.90;;;;;;4949921;29;20091;-75
2022/11/08 01:20:24;;;;;;;8.27;6.22;;;11.70;99.90;;;;;;4949140;29;20039;-76
2022/11/08 01:22:50;;;;;;;2.60;2.25;;;11.60;99.90;;;;;;4932473;29;20040;-76
2022/11/08 01:25:15;;;;;;;9.00;3.85;;;11.70;99.90;;;;;;4932472;29;20062;-76
2022/11/08 01:27:42;;;;;;;11.77;4.18;;;11.70;99.90;;;;;;4932294;29;20036;-76
2022/11/08 01:30:09;;;;;;;12.65;5.60;;;11.60;99.90;;;;;;4932095;29;20066;-76
2022/11/08 01:32:34;;;;;;;6.93;3.55;;;11.60;99.90;;;;;;4931912;29;20024;-76
2022/11/08 01:35:01;;;;;;;10.02;5.30;;;11.60;99.90;;;;;;4932349;29;20024;-76
2022/11/08 01:37:26;;;;;;;9.55;4.10;;;11.50;99.90;;;;;;4932484;29;20038;-76
2022/11/08 01:39:52;;;;;;;12.75;4.95;;;11.50;99.90;;;;;;4948989;29;20051;-76
2022/11/08 01:42:27;;;;;;;7.20;2.67;;;11.50;99.90;;;;;;4932009;29;20036;-76
2022/11/08 01:45:04;;;;;;;5.32;2.22;;;11.50;99.90;;;;;;4932071;29;20066;-76
2022/11/08 01:47:30;;;;;;;2.53;2.08;;;11.40;99.90;;;;;;4915761;29;20500;-76
2022/11/08 01:50:04;;;;;;;6.28;2.53;;;11.40;99.90;;;;;;4948850;29;20041;-76
2022/11/08 01:52:34;;;;;;;15.25;3.13;;;11.40;99.90;;;;;;4949099;29;20086;-76
2022/11/08 01:55:03;;;;;;;4.75;2.15;;;11.30;99.90;;;;;;4931955;29;20032;-76
2022/11/08 01:57:50;;;;;;;5.10;2.38;;;11.20;99.90;;;;;;4932022;29;20023;-76
2022/11/08 02:00:17;;;;;;;4.13;1.90;;;11.20;99.90;;;;;;4931893;29;20036;-76
2022/11/08 02:02:46;;;;;;;6.13;1.45;;;11.20;99.90;;;;;;4948643;29;20095;-76
2022/11/08 02:05:25;;;;;;;2.92;2.65;;;11.10;99.90;;;;;;4948829;29;20045;-76
2022/11/08 02:08:09;;;;;;;6.28;2.92;;;11.00;99.90;;;;;;4948775;29;20032;-76
2022/11/08 02:10:43;;;;;;;5.57;2.50;;;11.00;99.90;;;;;;4948639;29;20047;-77
2022/11/08 02:13:14;;;;;;;4.53;2.17;;;10.90;99.90;;;;;;4948968;29;20087;-75
2022/11/08 02:15:41;;;;;;;3.10;2.88;;;10.90;99.90;;;;;;4931658;29;20083;-76
2022/11/08 02:18:06;;;;;;;4.57;1.65;;;10.90;99.90;;;;;;4948302;29;20023;-74
2022/11/08 02:20:33;;;;;;;3.65;2.00;;;10.90;99.90;;;;;;4948739;29;20481;-75
2022/11/08 02:23:13;;;;;;;5.38;3.25;;;10.90;99.90;;;;;;4931173;29;20045;-77
2022/11/08 02:25:39;;;;;;;;;;;10.80;99.90;;;;;;4948737;29;20102;-74
2022/11/08 02:28:04;;;;;;;4.15;2.38;;;10.80;99.90;;;;;;4948431;29;19962;-76
2022/11/08 02:30:34;;;;;;;2.80;2.55;;;10.80;99.90;;;;;;4948047;29;20038;-76
2022/11/08 02:33:12;;;;;;;3.78;2.13;;;10.80;99.90;;;;;;4948014;29;20449;-76
2022/11/08 02:35:38;;;;;;;7.30;1.85;;;10.70;99.90;;;;;;4929422;29;20043;-76
2022/11/08 02:38:04;;;;;;;4.47;1.80;;;10.70;99.90;;;;;;4912124;29;20123;-76
2022/11/08 02:40:29;;;;;;;2.92;1.48;;;10.80;99.90;;;;;;4912583;29;20059;-76
2022/11/08 02:42:55;;;;;;;7.88;3.17;;;10.80;99.90;;;;;;4929343;29;20032;-76
2022/11/08 02:45:21;;;;;;;2.60;1.27;;;10.80;99.90;;;;;;4929374;29;20127;-77
2022/11/08 02:47:47;;;;;;;8.93;2.65;;;10.80;99.90;;;;;;4912485;29;20050;-76
2022/11/08 02:50:12;;;;;;;6.60;1.88;;;10.80;99.90;;;;;;4911870;29;20099;-76
2022/11/08 02:52:38;;;;;;;1.80;1.25;;;10.80;99.90;;;;;;4929179;29;20049;-76
2022/11/08 02:55:05;;;;;;;7.43;2.30;;;10.80;99.90;;;;;;4912499;29;20091;-76
2022/11/08 02:57:31;;;;;;;3.92;1.60;;;10.80;99.90;;;;;;4929230;29;20036;-75
2022/11/08 02:59:57;;;;;;;4.15;2.20;;;10.80;99.90;;;;;;4929455;29;20032;-76
2022/11/08 03:02:23;;;;;;;1.63;1.52;;;10.80;99.90;;;;;;4912206;29;20126;-76
2022/11/08 03:04:48;;;;;;;2.60;2.40;;;10.80;99.90;;;;;;4947088;29;20040;-76
2022/11/08 03:07:14;;;;;;;1.67;1.17;;;10.70;99.90;;;;;;4931204;29;20047;-76
2022/11/08 03:09:40;;;;;;;5.65;2.08;;;10.70;99.90;;;;;;4948183;29;20039;-76
2022/11/08 03:12:06;;;;;;;2.63;2.22;;;10.70;99.90;;;;;;4948096;29;20055;-76
2022/11/08 03:14:32;;;;;;;9.43;2.35;;;10.70;99.90;;;;;;4948169;29;20060;-76
2022/11/08 03:16:57;;;;;;;3.20;2.53;;;10.70;99.90;;;;;;4931203;29;20051;-75
2022/11/08 03:19:23;;;;;;;8.00;2.63;;;10.60;99.90;;;;;;4947696;29;20035;-76
2022/11/08 03:21:49;;;;;;;2.47;1.75;;;10.70;99.90;;;;;;4931041;29;20035;-76
2022/11/08 03:24:14;;;;;;;1.75;1.52;;;10.60;99.90;;;;;;4948092;29;20449;-76
2022/11/08 03:26:40;;;;;;;3.95;2.08;;;10.60;99.90;;;;;;4947803;29;20036;-76
2022/11/08 03:29:06;;;;;;;5.50;2.35;;;10.50;99.90;;;;;;4931310;29;20036;-76
2022/11/08 03:31:31;;;;;;;21.60;2.45;;;10.50;99.90;;;;;;4947951;29;20036;-75
2022/11/08 03:33:58;;;;;;;5.07;2.55;;;10.40;99.90;;;;;;4947739;29;20050;-76
2022/11/08 03:36:24;;;;;;;3.72;2.72;;;10.40;99.90;;;;;;4947988;29;20024;-76
2022/11/08 03:38:50;;;;;;;4.15;1.80;;;10.40;99.90;;;;;;4946553;29;20180;-76
2022/11/08 03:41:15;;;;;;;4.75;3.90;;;10.40;99.90;;;;;;4947973;29;20116;-75
2022/11/08 03:43:41;;;;;;;7.90;2.78;;;10.40;99.90;;;;;;4950691;29;20032;-76
2022/11/08 03:46:07;;;;;;;3.90;3.17;;;10.30;99.90;;;;;;4949845;29;20031;-76
2022/11/08 03:48:32;;;;;;;2.85;2.55;;;10.20;99.90;;;;;;4938653;29;20393;-75
2022/11/08 03:50:58;;;;;;;6.97;2.72;;;10.20;99.90;;;;;;4951277;29;20165;-76
2022/11/08 03:53:24;;;;;;;2.08;1.33;;;10.20;99.90;;;;;;4951305;29;20087;-75
2022/11/08 03:55:50;;;;;;;5.22;2.92;;;10.10;99.90;;;;;;4934204;29;20035;-76
2022/11/08 03:58:15;;;;;;;4.68;2.42;;;10.00;99.90;;;;;;4951210;29;20039;-76
2022/11/08 04:00:41;;;;;;;3.78;3.03;;;10.00;99.90;;;;;;4951055;29;20040;-75
2022/11/08 04:03:08;;;;;;;3.33;3.03;;;10.00;99.90;;;;;;4950979;29;20031;-76
2022/11/08 04:05:33;;;;;;;4.57;2.53;;;10.00;99.90;;;;;;4950720;29;20046;-76
2022/11/08 04:08:00;;;;;;;7.82;2.22;;;10.00;99.90;;;;;;4951066;29;20036;-75
2022/11/08 04:10:26;;;;;;;2.65;2.13;;;10.00;99.90;;;;;;4934025;29;20019;-75
2022/11/08 04:15:37;;;;;;;9.60;1.52;;;9.90;99.90;;;;;;4936325;29;20500;-76
2022/11/08 04:23:34;;;;;;;1.60;1.08;;;10.00;99.90;;;;;;4950678;29;20058;-76
2022/11/08 04:26:03;;;;;;;2.33;1.42;;;10.00;99.90;;;;;;4933697;29;20088;-75
2022/11/08 04:28:31;;;;;;;5.53;2.10;;;10.00;99.90;;;;;;4933397;29;20031;-75
2022/11/08 04:30:59;;;;;;;5.90;2.45;;;10.00;99.90;;;;;;4933195;29;20075;-76
2022/11/08 04:33:25;;;;;;;7.72;1.52;;;10.00;99.90;;;;;;4917593;29;20032;-75
2022/11/08 04:35:52;;;;;;;3.70;1.88;;;10.00;99.90;;;;;;4932965;29;20024;-75
2022/11/08 04:38:19;;;;;;;14.18;1.80;;;10.00;99.90;;;;;;4932975;29;20027;-76
2022/11/08 04:40:45;;;;;;;3.55;1.70;;;9.90;99.90;;;;;;4933127;29;20050;-75
2022/11/08 04:43:11;;;;;;;9.60;1.27;;;9.90;99.90;;;;;;4950161;29;20043;-75
2022/11/08 04:45:37;;;;;;;5.15;1.77;;;9.90;99.90;;;;;;4933169;29;20028;-75
2022/11/08 04:48:03;;;;;;;6.45;3.08;;;9.90;99.90;;;;;;4917313;29;20038;-75
2022/11/08 04:50:29;;;;;;;4.43;1.00;;;9.90;99.90;;;;;;4933127;29;20043;-75
2022/11/08 04:52:55;;;;;;;3.90;1.60;;;9.90;99.90;;;;;;4949823;29;20026;-76
2022/11/08 04:55:22;;;;;;;7.38;2.58;;;9.90;99.90;;;;;;4949497;29;20082;-76
2022/11/08 04:57:49;;;;;;;5.85;2.05;;;10.00;99.90;;;;;;4933063;29;20039;-76
2022/11/08 05:00:16;;;;;;;3.50;1.20;;;10.00;99.90;;;;;;4950011;29;20030;-75
2022/11/08 05:02:41;;;;;;;1.60;1.35;;;10.00;99.90;;;;;;4933177;29;20095;-76
2022/11/08 05:05:08;;;;;;;4.45;1.40;;;10.00;99.90;;;;;;4932958;29;20035;-75
2022/11/08 05:07:34;;;;;;;5.05;1.80;;;10.00;99.90;;;;;;4949643;29;20044;-76
2022/11/08 05:09:59;;;;;;;10.95;2.40;;;10.10;99.90;;;;;;4950007;29;20043;-75
2022/11/08 05:12:25;;;;;;;5.68;0.95;;;10.10;99.90;;;;;;4949873;29;20027;-76
2022/11/08 05:14:51;;;;;;;7.45;1.52;;;10.10;99.90;;;;;;4916919;29;20056;-75
2022/11/08 05:17:17;;;;;;;2.15;1.65;;;10.10;99.90;;;;;;4932330;29;20038;-75
2022/11/08 05:25:11;;;;;;;1.90;1.77;;;10.20;99.90;;;;;;4948102;29;20036;-76
2022/11/08 05:27:37;;;;;;;1.52;1.42;;;10.20;99.90;;;;;;4932083;29;20430;-75
2022/11/08 05:30:03;;;;;;;2.85;2.38;;;10.20;99.90;;;;;;4931700;29;20060;-75
2022/11/08 05:32:29;;;;;;;1.67;1.58;;;10.10;99.90;;;;;;4931896;29;20048;-74
2022/11/08 05:34:56;;;;;;;2.17;1.63;;;10.10;99.90;;;;;;4944322;29;20036;-75
2022/11/08 05:37:21;;;;;;;4.32;1.48;;;10.20;99.90;;;;;;4922088;29;20016;-75
2022/11/08 05:39:47;;;;;;;2.83;1.90;;;10.10;99.90;;;;;;4927506;29;20048;-75
2022/11/08 05:42:13;;;;;;;1.90;1.80;;;10.00;99.90;;;;;;4922940;29;20410;-75
2022/11/08 05:44:39;;;;;;;3.08;1.42;;;10.00;99.90;;;;;;4943121;29;20500;-75
2022/11/08 05:47:05;;;;;;;8.98;2.40;;;9.90;99.90;;;;;;4947322;29;20027;-77
2022/11/08 05:49:30;;;;;;;2.78;1.25;;;9.80;99.90;;;;;;4931049;29;20036;-75
2022/11/08 05:51:56;;;;;;;3.65;1.05;;;9.80;99.90;;;;;;4927067;29;20422;-74
2022/11/08 05:54:22;;;;;;;6.07;2.75;;;9.80;99.90;;;;;;4946343;29;20031;-76
2022/11/08 05:56:48;;;;;;;1.33;1.23;;;9.90;99.90;;;;;;4928183;29;20020;-75
2022/11/08 05:59:14;;;;;;;1.70;1.05;;;9.90;99.90;;;;;;4915097;29;20115;-75
2022/11/08 06:01:40;;;;;;;5.63;1.40;;;9.80;99.90;;;;;;4914960;29;20039;-74
2022/11/08 06:04:06;;;;;;;3.67;1.50;;;9.80;99.90;;;;;;4947913;29;20049;-75
2022/11/08 06:06:32;;;;;;;2.63;1.90;;;9.70;99.90;;;;;;4930590;29;20047;-74
2022/11/08 06:08:57;;;;;;;3.03;1.65;;;9.70;99.90;;;;;;4914878;29;20054;-74
2022/11/08 06:11:25;;;;;;;2.17;1.65;;;9.60;99.90;;;;;;4918395;29;20129;-74
2022/11/08 06:13:53;;;;;;;3.42;1.85;;;9.60;99.90;;;;;;4947545;29;20056;-75
2022/11/08 06:16:20;;;;;;;3.65;2.83;;;9.60;99.90;;;;;;4947594;29;20035;-75
2022/11/08 06:18:45;;;;;;;7.53;1.55;;;9.60;99.90;;;;;;4930545;29;20361;-75
2022/11/08 06:21:14;;;;;;;2.20;2.10;;;9.50;99.90;;;;;;4914415;29;20024;-74
2022/11/08 06:23:40;;;;;;;4.13;1.38;;;9.50;99.90;;;;;;4928814;29;20024;-75
2022/11/08 06:26:07;;;;;;;1.58;1.48;;;9.50;99.90;;;;;;4928216;29;20032;-75
2022/11/08 06:28:34;;;;;;;1.52;1.33;;;9.50;99.90;;;;;;4930928;29;20051;-75
2022/11/08 06:31:01;;;;;;;2.30;1.42;;;9.40;99.90;;;;;;4946947;29;20477;-74
2022/11/08 06:33:28;;;;;;;7.78;1.30;;;9.30;99.90;;;;;;4947538;29;20032;-75
2022/11/08 06:35:54;;;;;;;1.77;1.50;;;9.30;99.90;;;;;;4916940;29;20020;-75
2022/11/08 06:38:20;;;;;;;0.88;0.88;;;9.20;99.90;;;;;;4928442;29;20032;-75
2022/11/08 06:40:46;;;;;;;1.15;1.10;;;9.30;99.90;;;;;;4930675;29;20036;-75
2022/11/08 06:43:12;;;;;;;3.65;2.10;;;9.30;99.90;;;;;;4905175;29;20508;-75
2022/11/08 06:45:39;;;;;;;0.77;0.77;;;9.30;99.90;;;;;;4946911;29;20046;-75
2022/11/08 06:48:06;;;;;;;2.25;1.73;;;9.40;99.90;;;;;;4930173;29;20027;-74
2022/11/08 06:50:33;;;;;;;2.75;2.53;;;9.50;99.90;;;;;;4947184;29;20087;-75
2022/11/08 06:53:01;;;;;;;4.55;2.47;;;9.50;99.90;;;;;;4914645;29;20083;-75
2022/11/08 06:55:28;;;;;;;3.13;1.27;;;9.50;99.90;;;;;;4929822;29;20111;-75
2022/11/08 06:57:54;;;;;;;1.75;1.65;;;9.50;99.90;;;;;;4919827;29;20036;-75
2022/11/08 07:00:21;;;;;;;3.92;1.52;;;9.60;99.90;;;;;;4914342;29;20059;-74
2022/11/08 07:02:56;;;;;;;4.03;1.60;;;9.60;99.90;;;;;;4913453;29;20032;-75
2022/11/08 07:05:22;;;;;;;7.75;1.98;;;9.60;99.90;;;;;;4945095;29;20032;-75
2022/11/08 07:07:51;;;;;;;1.83;1.73;;;9.70;99.90;;;;;;4930648;29;20370;-75
2022/11/08 07:10:21;;;;;;;5.55;2.63;;;9.80;99.90;;;;;;4930082;29;20035;-75
2022/11/08 07:12:49;;;;;;;5.57;1.80;;;10.00;99.90;;;;;;4914343;29;20120;-75
2022/11/08 07:15:15;;;;;;;1.48;1.38;;;10.00;99.90;;;;;;4947179;29;20120;-74
2022/11/08 07:17:41;;;;;;;2.58;2.10;;;10.10;99.90;;;;;;4916394;29;20485;-75
2022/11/08 07:20:07;;;;;;;1.55;1.45;;;10.10;99.90;;;;;;4950849;29;20038;-75
2022/11/08 07:22:33;;;;;;;2.10;1.33;;;10.20;99.90;;;;;;4950687;29;20028;-75
2022/11/08 07:24:59;;;;;;;3.60;1.95;;;10.20;99.90;;;;;;4949272;29;20106;-75
2022/11/08 07:27:26;;;;;;;8.90;2.22;;;10.40;99.90;;;;;;4900326;29;20095;-75
2022/11/08 07:29:52;;;;;;;1.25;1.10;;;10.50;99.90;;;;;;4932536;29;20039;-77
2022/11/08 07:32:18;;;;;;;2.95;1.35;;;10.60;99.90;;;;;;4933511;29;20031;-77
2022/11/08 07:34:44;;;;;;;1.42;1.30;;;10.90;99.90;;;;;;4949978;29;20024;-76
2022/11/08 07:37:10;;;;;;;5.03;2.75;;;11.10;99.90;;;;;;4941602;29;20034;-76
2022/11/08 07:39:36;;;;;;;2.15;2.00;;;11.40;99.90;;;;;;4933696;29;20044;-74
2022/11/08 07:42:02;;;;;;;1.60;1.50;;;11.60;99.90;;;;;;4949967;29;20031;-78
2022/11/08 07:44:29;;;;;;;1.67;1.15;;;11.60;99.90;;;;;;4948269;29;20028;-76
2022/11/08 07:46:54;;;;;;;2.90;1.40;;;11.90;99.90;;;;;;4917749;29;20405;-77
2022/11/08 07:49:20;;;;;;;4.13;2.35;;;12.10;99.90;;;;;;4950581;29;20036;-77
2022/11/08 07:51:46;;;;;;;5.72;3.20;;;12.40;99.90;;;;;;4933900;29;20027;-76
2022/11/08 07:54:12;;;;;;;0.93;0.93;;;12.80;99.90;;;;;;4917954;29;20032;-76
2022/11/08 07:56:37;;;;;;;2.65;1.27;;;13.40;99.90;;;;;;4950695;29;20060;-76
2022/11/08 07:59:03;;;;;;;4.03;1.38;;;13.80;99.90;;;;;;4918239;29;20075;-76
2022/11/08 08:01:29;;;;;;;3.30;1.55;;;14.20;99.90;;;;;;4933485;29;20050;-75
2022/11/08 08:03:55;;;;;;;1.10;1.05;;;14.00;99.90;;;;;;4950933;29;20034;-76
2022/11/08 08:06:22;;;;;;;2.17;1.13;;;13.70;99.90;;;;;;4918133;29;20126;-77
2022/11/08 08:08:47;;;;;;;2.85;1.55;;;13.40;99.90;;;;;;4950949;29;20126;-76
2022/11/08 08:11:14;;;;;;;1.13;0.75;;;13.30;99.90;;;;;;4933776;29;20032;-76
2022/11/08 08:13:40;;;;;;;0.63;0.63;;;13.30;99.90;;;;;;4933851;29;20036;-76
2022/11/08 08:16:06;;;;;;;5.07;1.80;;;13.40;99.90;;;;;;4950837;29;20389;-76
2022/11/08 08:18:32;;;;;;;4.55;1.25;;;13.60;99.90;;;;;;4950812;29;20032;-76
2022/11/08 08:20:58;;;;;;;4.25;1.00;;;13.50;99.90;;;;;;4933697;29;20063;-75
2022/11/08 08:23:24;;;;;;;1.27;0.80;;;13.40;99.90;;;;;;4950752;29;20032;-76
2022/11/08 08:25:50;;;;;;;0.82;0.70;;;13.40;99.90;;;;;;4927612;29;20110;-76
2022/11/08 08:28:15;;;;;;;4.78;1.65;;;13.40;99.90;;;;;;4949029;29;20055;-76
2022/11/08 08:30:41;;;;;;;2.25;0.80;;;13.40;99.90;;;;;;4932538;29;20043;-76
2022/11/08 08:33:13;;;;;;;1.38;1.27;;;13.40;99.90;;;;;;4933010;29;20027;-76
2022/11/08 08:35:41;;;;;;;2.05;1.35;;;13.40;99.90;;;;;;4950125;29;20193;-76
2022/11/08 08:38:08;;;;;;;0.73;0.50;;;13.60;99.90;;;;;;4950123;29;20032;-76
2022/11/08 08:40:34;;;;;;;4.88;1.33;;;13.90;99.90;;;;;;4949651;29;20050;-76
2022/11/08 08:43:02;;;;;;;4.70;1.45;;;14.10;99.90;;;;;;4949977;29;20060;-76
2022/11/08 08:45:28;;;;;;;5.05;2.33;;;14.40;99.90;;;;;;4949893;29;20047;-76
2022/11/08 08:47:55;;;;;;;1.23;1.13;;;14.30;99.90;;;;;;4901550;29;20107;-76
2022/11/08 08:50:22;;;;;;;2.38;1.23;;;14.30;99.90;;;;;;4949412;29;20023;-76
2022/11/08 08:52:48;;;;;;;6.00;0.77;;;14.30;99.90;;;;;;4950084;29;20024;-76
2022/11/08 08:55:14;;;;;;;1.95;1.58;;;14.40;99.90;;;;;;4932287;29;20106;-75
2022/11/08 08:57:46;;;;;;;1.25;1.15;;;14.40;99.90;;;;;;4948518;29;20028;-76
2022/11/08 09:00:14;;;;;;;3.38;1.40;;;14.50;99.90;;;;;;4949804;29;20038;-76
2022/11/08 09:02:40;;;;;;;2.30;1.88;;;14.80;99.90;;;;;;4950030;29;20158;-76
2022/11/08 09:05:06;;;;;;;1.95;0.85;;;14.90;99.90;;;;;;4949587;29;20366;-76
2022/11/08 09:07:32;;;;;;;4.07;1.67;;;14.90;99.90;;;;;;4916907;29;20035;-76
2022/11/08 09:09:57;;;;;;;2.10;1.05;;;14.80;99.90;;;;;;4948957;29;20037;-76
2022/11/08 09:12:23;;;;;;;8.63;1.35;;;15.20;99.90;;;;;;4914684;29;20027;-75
2022/11/08 09:14:49;;;;;;;1.02;0.93;;;15.70;99.90;;;;;;4932634;29;20035;-75
2022/11/08 09:17:15;;;;;;;7.35;1.40;;;15.70;99.90;;;;;;4949426;29;20023;-76
2022/11/08 09:19:40;;;;;;;0.50;0.50;;;16.10;99.90;;;;;;4932032;29;20223;-76
2022/11/08 09:22:06;;;;;;;3.78;1.35;;;16.50;99.90;;;;;;4949554;29;20039;-76
2022/11/08 09:24:35;;;;;;;2.45;1.48;;;16.80;99.90;;;;;;4949114;29;20095;-76
2022/11/08 09:27:03;;;;;;;8.75;2.08;;;17.00;99.90;;;;;;4934013;29;20857;-76
2022/11/08 09:29:30;;;;;;;1.33;0.60;;;16.80;99.90;;;;;;4931491;29;20043;-76
2022/11/08 09:31:56;;;;;;;1.30;1.17;;;17.00;99.90;;;;;;4931556;29;20016;-76
2022/11/08 09:34:23;;;;;;;1.33;1.10;;;17.40;99.90;;;;;;4931442;29;20042;-76
2022/11/08 09:36:49;;;;;;;1.92;1.05;;;17.40;99.90;;;;;;4947919;29;20032;-76
2022/11/08 09:39:15;;;;;;;0.88;0.88;;;17.80;99.90;;;;;;4947585;29;20047;-76
2022/11/08 09:41:53;;;;;;;1.52;0.75;;;18.10;99.90;;;;;;4948305;29;20047;-76
2022/11/08 09:44:22;;;;;;;1.55;1.27;;;18.10;99.90;;;;;;4947844;29;20028;-76
2022/11/08 09:46:56;;;;;;;0.73;0.55;;;18.10;99.90;;;;;;4948663;29;20040;-76
2022/11/08 09:49:30;;;;;;;4.15;2.08;;;17.00;99.90;;;;;;4930807;29;20393;-75
2022/11/08 09:51:57;;;;;;;1.83;1.73;;;16.50;99.90;;;;;;4947799;29;20087;-76
2022/11/08 09:54:29;;;;;;;7.35;2.88;;;16.20;99.90;;;;;;4930665;29;20056;-76
2022/11/08 09:56:55;;;;;;;2.08;1.88;;;15.70;99.90;;;;;;4948325;29;20028;-76
2022/11/08 09:59:37;;;;;;;3.40;1.30;;;15.60;99.90;;;;;;4948776;29;20043;-76
2022/11/08 10:02:15;;;;;;;4.63;1.55;;;15.50;99.90;;;;;;4948714;29;20036;-75
2022/11/08 10:04:41;;;;;;;5.50;0.85;;;15.40;99.90;;;;;;4948414;29;20031;-75
2022/11/08 10:07:31;;;;;;;2.08;1.50;;;15.50;99.90;;;;;;4948420;29;20027;-76
2022/11/08 10:10:02;;;;;;;0.85;0.70;;;15.60;99.90;;;;;;4930999;29;20028;-74
2022/11/08 10:12:47;;;;;;;1.80;1.25;;;15.70;99.90;;;;;;4931491;29;20027;-76
2022/11/08 10:15:23;;;;;;;2.10;1.52;;;16.60;99.90;;;;;;4948256;29;20052;-76
2022/11/08 10:17:52;;;;;;;3.00;1.88;;;17.00;99.90;;;;;;4948143;29;20027;-76
2022/11/08 10:20:22;;;;;;;2.88;1.20;;;17.40;99.90;;;;;;4948294;29;20464;-76
2022/11/08 10:22:48;;;;;;;1.75;1.42;;;17.10;99.90;;;;;;4948408;29;20038;-76
2022/11/08 10:25:19;;;;;;;3.22;2.80;;;17.20;99.90;;;;;;4948313;29;20032;-75
2022/11/08 10:27:45;;;;;;;3.13;1.02;;;17.10;99.90;;;;;;4915754;29;20102;-76
2022/11/08 10:30:29;;;;;;;1.75;1.40;;;16.80;99.90;;;;;;4946926;29;20035;-75
2022/11/08 10:32:56;;;;;;;1.92;1.30;;;16.80;99.90;;;;;;4933964;29;20062;-74
2022/11/08 10:35:43;;;;;;;1.58;1.48;;;16.60;99.90;;;;;;4931176;29;20028;-75
2022/11/08 10:38:18;;;;;;;1.27;1.00;;;16.40;99.90;;;;;;4948395;29;20453;-76
2022/11/08 10:40:47;;;;;;;4.55;1.42;;;16.30;99.90;;;;;;4926158;29;20036;-77
2022/11/08 10:43:28;;;;;;;2.67;1.75;;;16.20;99.90;;;;;;4929657;29;20035;-76
2022/11/08 10:45:54;;;;;;;3.50;1.58;;;16.20;99.90;;;;;;4946448;29;20042;-76
2022/11/08 10:48:20;;;;;;;4.18;1.42;;;16.00;99.90;;;;;;4948020;29;20063;-76
2022/11/08 10:50:49;;;;;;;2.28;1.45;;;16.00;99.90;;;;;;4946892;29;20032;-76
2022/11/08 10:53:33;;;;;;;2.15;1.88;;;15.90;99.90;;;;;;4950303;29;20032;-76
2022/11/08 10:56:04;;;;;;;3.75;1.55;;;15.90;99.90;;;;;;4934139;29;20442;-76
2022/11/08 10:58:41;;;;;;;3.13;1.95;;;15.80;99.90;;;;;;4952089;29;20057;-76
2022/11/08 11:01:06;;;;;;;5.03;1.13;;;15.60;99.90;;;;;;4952152;29;20087;-76
2022/11/08 11:03:33;;;;;;;6.00;1.10;;;15.70;99.90;;;;;;4951797;29;20040;-76
2022/11/08 11:06:01;;;;;;;2.95;1.05;;;15.80;99.90;;;;;;4951162;29;20106;-76
2022/11/08 11:08:27;;;;;;;5.47;1.20;;;15.90;99.90;;;;;;4951951;29;20035;-76
2022/11/08 11:10:54;;;;;;;1.20;0.98;;;15.90;99.90;;;;;;4951444;29;20055;-76
2022/11/08 11:13:21;;;;;;;3.03;1.75;;;16.00;99.90;;;;;;4951298;29;20032;-76
2022/11/08 11:16:04;;;;;;;1.08;1.00;;;15.80;99.90;;;;;;4951821;29;20058;-76
2022/11/08 11:18:34;;;;;;;0.70;0.70;;;15.90;99.90;;;;;;4918218;29;20027;-76
2022/11/08 11:21:09;;;;;;;3.17;1.15;;;15.80;99.90;;;;;;4951442;29;20024;-76
2022/11/08 11:23:55;;;;;;;4.28;1.58;;;15.90;99.90;;;;;;4951239;29;20059;-76
2022/11/08 11:26:30;;;;;;;3.50;1.55;;;15.90;99.90;;;;;;4951028;29;20036;-76
2022/11/08 11:29:08;;;;;;;1.45;0.73;;;16.00;99.90;;;;;;4951321;29;20040;-75
2022/11/08 11:31:35;;;;;;;3.67;1.65;;;15.90;99.90;;;;;;4951617;29;20063;-76
2022/11/08 11:34:16;;;;;;;4.03;1.85;;;16.00;99.90;;;;;;4950625;29;20023;-76
2022/11/08 11:36:56;;;;;;;5.88;1.00;;;16.10;99.90;;;;;;4951566;29;20095;-76
2022/11/08 11:39:45;;;;;;;3.05;1.20;;;16.40;99.90;;;;;;4969242;29;20046;-75
2022/11/08 11:42:44;;;;;;;1.48;1.08;;;16.60;99.90;;;;;;4953576;29;20039;-75
2022/11/08 11:45:18;;;;;;;3.60;1.30;;;16.70;99.90;;;;;;4965828;29;20047;-75
2022/11/08 11:48:01;;;;;;;1.30;1.10;;;16.90;99.90;;;;;;4951483;29;20086;-76
2022/11/08 11:50:43;;;;;;;2.70;2.50;;;17.20;99.90;;;;;;4953359;29;20039;-76
2022/11/08 11:53:15;;;;;;;1.98;1.75;;;17.30;99.90;;;;;;4955762;29;20060;-75
2022/11/08 11:56:05;;;;;;;1.48;1.23;;;17.10;99.90;;;;;;4951203;29;20027;-75
2022/11/08 11:58:46;;;;;;;3.20;1.17;;;17.00;99.90;;;;;;4950671;29;20366;-76
2022/11/08 12:01:39;;;;;;;2.25;0.68;;;16.90;99.90;;;;;;4950827;29;20035;-75
2022/11/08 12:04:15;;;;;;;1.95;1.45;;;16.60;99.90;;;;;;4933431;29;20031;-75
2022/11/08 12:07:06;;;;;;;1.90;1.80;;;16.50;99.90;;;;;;4951068;29;20040;-75
2022/11/08 12:10:02;;;;;;;3.42;1.83;;;16.20;99.90;;;;;;4950943;29;20035;-75
2022/11/08 12:12:37;;;;;;;0.95;0.77;;;16.30;99.90;;;;;;4951016;29;20023;-75
2022/11/08 12:15:22;;;;;;;2.13;1.80;;;16.20;99.90;;;;;;4950462;29;20456;-75
2022/11/08 12:18:18;;;;;;;2.38;1.77;;;16.10;99.90;;;;;;4933595;29;20027;-75
2022/11/08 12:20:52;;;;;;;2.13;1.15;;;16.00;99.90;;;;;;4951038;29;20032;-75
2022/11/08 12:23:35;;;;;;;2.58;1.42;;;15.80;99.90;;;;;;4950374;29;20035;-75
2022/11/08 12:26:20;;;;;;;3.25;0.98;;;15.80;99.90;;;;;;4950449;29;20031;-75
2022/11/08 12:28:52;;;;;;;5.72;1.42;;;15.90;99.90;;;;;;4950742;29;20032;-75
2022/11/08 12:31:44;;;;;;;1.40;1.33;;;16.00;99.90;;;;;;4950428;29;20070;-75
2022/11/08 12:34:31;;;;;;;5.35;1.80;;;16.00;99.90;;;;;;4950173;29;20076;-75
2022/11/08 12:37:18;;;;;;;1.10;1.00;;;15.90;99.90;;;;;;4946424;29;20055;-75
2022/11/08 12:39:49;;;;;;;3.03;1.23;;;16.00;99.90;;;;;;4950228;29;20138;-75
2022/11/08 12:42:42;;;;;;;1.10;1.05;;;16.00;99.90;;;;;;4950290;29;20034;-76
2022/11/08 12:45:38;;;;;;;1.27;1.17;;;15.90;99.90;;;;;;4950409;29;20035;-75
2022/11/08 12:48:47;;;;;;;3.30;1.15;;;15.90;99.90;;;;;;4949034;29;20055;-76
2022/11/08 12:51:30;;;;;;;4.38;1.63;;;15.90;99.90;;;;;;4921609;29;20051;-76
2022/11/08 12:54:13;;;;;;;2.13;1.30;;;16.00;99.90;;;;;;4932688;29;20067;-76
2022/11/08 12:56:43;;;;;;;1.38;1.27;;;16.10;99.90;;;;;;4913576;29;20128;-75
2022/11/08 12:59:27;;;;;;;1.83;1.20;;;16.20;99.90;;;;;;4933670;29;20036;-76
2022/11/08 13:01:54;;;;;;;3.88;1.35;;;16.20;99.90;;;;;;4943427;29;20563;-76
2022/11/08 13:04:54;;;;;;;0.80;0.80;;;16.30;99.90;;;;;;4934316;29;20039;-76
2022/11/08 13:07:32;;;;;;;2.47;1.05;;;16.40;99.90;;;;;;4916634;29;20042;-76
2022/11/08 13:10:26;;;;;;;1.20;1.05;;;16.40;99.90;;;;;;4949678;29;20060;-76
2022/11/08 13:13:14;;;;;;;2.53;1.55;;;16.40;99.90;;;;;;4924396;29;20025;-76
2022/11/08 13:16:08;;;;;;;2.67;1.90;;;16.30;99.90;;;;;;4914533;29;20059;-76
2022/11/08 13:18:46;;;;;;;3.22;1.60;;;16.30;99.90;;;;;;4949565;29;20496;-76
2022/11/08 13:21:33;;;;;;;2.80;1.13;;;16.30;99.90;;;;;;4932551;29;20102;-76
2022/11/08 13:24:01;;;;;;;2.33;0.93;;;16.30;99.90;;;;;;4949271;29;20027;-76
2022/11/08 13:26:41;;;;;;;4.45;1.95;;;16.40;99.90;;;;;;4949280;29;20040;-75